sensor_id;sensor_type;location;lat;lon;timestamp;temperature;humidity
59999;DHT22;45859;51.378;6.736;2022-08-11T00:00:39;21.90;99.90
59999;DHT22;45859;51.378;6.736;2022-08-11T00:03:09;21.80;99.90
59999;DHT22;45859;51.378;6.736;2022-08-11T00:08:11;21.70;99.90
59999;DHT22;45859;51.378;6.736;2022-08-11T00:10:55;21.70;99.90
59999;DHT22;45859;51.378;6.736;2022-08-11T00:13:31;21.60;99.90
59999;DHT22;45859;51.378;6.736;2022-08-11T00:15:57;21.60;99.90
59999;DHT22;45859;51.378;6.736;2022-08-11T00:18:23;21.50;99.90
59999;DHT22;45859;51.378;6.736;2022-08-11T00:20:50;21.50;99.90
59999;DHT22;45859;51.378;6.736;2022-08-11T00:23:18;21.40;99.90
59999;DHT22;45859;51.378;6.736;2022-08-11T00:25:49;21.40;99.90
59999;DHT22;45859;51.378;6.736;2022-08-11T00:28:28;21.30;99.90
59999;DHT22;45859;51.378;6.736;2022-08-11T00:31:07;21.30;99.90
59999;DHT22;45859;51.378;6.736;2022-08-11T00:36:03;21.10;99.90
59999;DHT22;45859;51.378;6.736;2022-08-11T00:38:33;21.10;99.90
59999;DHT22;45859;51.378;6.736;2022-08-11T00:44:11;20.90;99.90
59999;DHT22;45859;51.378;6.736;2022-08-11T00:58:14;20.70;99.90
59999;DHT22;45859;51.378;6.736;2022-08-11T01:20:58;20.20;99.90
59999;DHT22;45859;51.378;6.736;2022-08-11T01:28:48;20.10;99.90
59999;DHT22;45859;51.378;6.736;2022-08-11T01:40:48;19.90;99.90
59999;DHT22;45859;51.378;6.736;2022-08-11T01:46:10;19.80;99.90
59999;DHT22;45859;51.378;6.736;2022-08-11T01:54:10;19.60;99.90
59999;DHT22;45859;51.378;6.736;2022-08-11T01:59:44;19.50;99.90
59999;DHT22;45859;51.378;6.736;2022-08-11T02:05:35;19.60;99.90
59999;DHT22;45859;51.378;6.736;2022-08-11T02:08:29;19.60;99.90
59999;DHT22;45859;51.378;6.736;2022-08-11T02:11:18;19.50;99.90
59999;DHT22;45859;51.378;6.736;2022-08-11T02:14:11;19.50;99.90
59999;DHT22;45859;51.378;6.736;2022-08-11T02:16:47;19.50;99.90
59999;DHT22;45859;51.378;6.736;2022-08-11T02:19:23;19.50;99.90
59999;DHT22;45859;51.378;6.736;2022-08-11T02:22:36;19.50;99.90
59999;DHT22;45859;51.378;6.736;2022-08-11T02:25:58;19.40;99.90
59999;DHT22;45859;51.378;6.736;2022-08-11T02:28:26;19.40;99.90
59999;DHT22;45859;51.378;6.736;2022-08-11T02:31:12;19.40;99.90
59999;DHT22;45859;51.378;6.736;2022-08-11T02:34:13;19.40;99.90
59999;DHT22;45859;51.378;6.736;2022-08-11T02:36:51;19.30;99.90
59999;DHT22;45859;51.378;6.736;2022-08-11T02:39:19;19.30;99.90
59999;DHT22;45859;51.378;6.736;2022-08-11T02:41:57;19.30;99.90
59999;DHT22;45859;51.378;6.736;2022-08-11T02:50:11;19.20;99.90
59999;DHT22;45859;51.378;6.736;2022-08-11T03:03:49;19.20;99.90
59999;DHT22;45859;51.378;6.736;2022-08-11T03:07:05;19.20;99.90
59999;DHT22;45859;51.378;6.736;2022-08-11T03:13:11;19.10;99.90
59999;DHT22;45859;51.378;6.736;2022-08-11T03:15:51;19.10;99.90
59999;DHT22;45859;51.378;6.736;2022-08-11T03:18:53;19.00;99.90
59999;DHT22;45859;51.378;6.736;2022-08-11T03:21:28;19.00;99.90
59999;DHT22;45859;51.378;6.736;2022-08-11T03:24:20;19.00;99.90
59999;DHT22;45859;51.378;6.736;2022-08-11T03:32:49;18.80;99.90
59999;DHT22;45859;51.378;6.736;2022-08-11T03:38:26;18.60;99.90
59999;DHT22;45859;51.378;6.736;2022-08-11T03:44:22;18.40;99.90
59999;DHT22;45859;51.378;6.736;2022-08-11T04:11:48;17.80;99.90
59999;DHT22;45859;51.378;6.736;2022-08-11T04:18:04;17.60;99.90
59999;DHT22;45859;51.378;6.736;2022-08-11T04:35:31;17.50;99.90
59999;DHT22;45859;51.378;6.736;2022-08-11T04:50:07;17.40;99.90
59999;DHT22;45859;51.378;6.736;2022-08-11T04:53:28;17.40;99.90
59999;DHT22;45859;51.378;6.736;2022-08-11T04:56:21;17.50;99.90
59999;DHT22;45859;51.378;6.736;2022-08-11T05:17:11;18.40;99.90
59999;DHT22;45859;51.378;6.736;2022-08-11T05:19:57;18.60;99.90
59999;DHT22;45859;51.378;6.736;2022-08-11T05:22:49;18.70;99.90
59999;DHT22;45859;51.378;6.736;2022-08-11T05:25:34;19.00;99.90
59999;DHT22;45859;51.378;6.736;2022-08-11T05:28:49;19.10;99.90
59999;DHT22;45859;51.378;6.736;2022-08-11T05:31:37;19.40;99.90
59999;DHT22;45859;51.378;6.736;2022-08-11T05:34:25;19.60;99.90
59999;DHT22;45859;51.378;6.736;2022-08-11T05:39:50;20.00;99.90
59999;DHT22;45859;51.378;6.736;2022-08-11T05:42:42;20.10;99.90
59999;DHT22;45859;51.378;6.736;2022-08-11T05:45:33;20.30;99.90
59999;DHT22;45859;51.378;6.736;2022-08-11T05:48:19;20.50;99.90
59999;DHT22;45859;51.378;6.736;2022-08-11T05:51:04;20.70;99.90
59999;DHT22;45859;51.378;6.736;2022-08-11T05:53:51;20.90;99.90
59999;DHT22;45859;51.378;6.736;2022-08-11T05:56:52;21.20;99.90
59999;DHT22;45859;51.378;6.736;2022-08-11T05:59:19;22.10;99.90
59999;DHT22;45859;51.378;6.736;2022-08-11T06:01:46;23.50;99.90
59999;DHT22;45859;51.378;6.736;2022-08-11T06:04:20;24.40;99.90
59999;DHT22;45859;51.378;6.736;2022-08-11T06:06:56;25.50;99.90
59999;DHT22;45859;51.378;6.736;2022-08-11T06:11:55;26.90;99.90
59999;DHT22;45859;51.378;6.736;2022-08-11T06:14:23;27.50;99.90
59999;DHT22;45859;51.378;6.736;2022-08-11T06:16:55;28.10;99.90
59999;DHT22;45859;51.378;6.736;2022-08-11T06:19:31;28.40;99.90
59999;DHT22;45859;51.378;6.736;2022-08-11T06:21:59;28.80;99.90
59999;DHT22;45859;51.378;6.736;2022-08-11T06:24:25;29.00;99.90
59999;DHT22;45859;51.378;6.736;2022-08-11T06:26:54;29.20;99.90
59999;DHT22;45859;51.378;6.736;2022-08-11T06:29:22;29.30;99.90
59999;DHT22;45859;51.378;6.736;2022-08-11T06:32:00;29.40;99.90
59999;DHT22;45859;51.378;6.736;2022-08-11T06:46:00;31.00;99.90
59999;DHT22;45859;51.378;6.736;2022-08-11T06:48:30;31.70;99.90
59999;DHT22;45859;51.378;6.736;2022-08-11T06:51:02;32.80;99.90
59999;DHT22;45859;51.378;6.736;2022-08-11T06:53:48;32.90;99.90
59999;DHT22;45859;51.378;6.736;2022-08-11T06:56:21;33.20;99.90
59999;DHT22;45859;51.378;6.736;2022-08-11T06:59:07;32.80;99.90
59999;DHT22;45859;51.378;6.736;2022-08-11T07:05:10;32.70;99.90
59999;DHT22;45859;51.378;6.736;2022-08-11T07:11:06;34.20;99.90
59999;DHT22;45859;51.378;6.736;2022-08-11T07:14:00;34.30;99.90
59999;DHT22;45859;51.378;6.736;2022-08-11T07:16:47;34.80;99.90
59999;DHT22;45859;51.378;6.736;2022-08-11T07:19:19;35.30;99.90
59999;DHT22;45859;51.378;6.736;2022-08-11T07:22:06;35.10;99.90
59999;DHT22;45859;51.378;6.736;2022-08-11T07:25:00;35.20;99.90
59999;DHT22;45859;51.378;6.736;2022-08-11T07:27:59;35.40;99.90
59999;DHT22;45859;51.378;6.736;2022-08-11T07:30:45;36.10;99.90
59999;DHT22;45859;51.378;6.736;2022-08-11T07:33:13;36.30;99.90
59999;DHT22;45859;51.378;6.736;2022-08-11T07:35:55;36.50;99.90
59999;DHT22;45859;51.378;6.736;2022-08-11T07:38:24;36.80;99.90
59999;DHT22;45859;51.378;6.736;2022-08-11T07:41:15;37.20;99.90
59999;DHT22;45859;51.378;6.736;2022-08-11T07:43:44;37.60;99.90
59999;DHT22;45859;51.378;6.736;2022-08-11T07:46:14;37.80;99.90
59999;DHT22;45859;51.378;6.736;2022-08-11T07:48:59;37.40;99.90
59999;DHT22;45859;51.378;6.736;2022-08-11T07:51:44;37.70;99.90
59999;DHT22;45859;51.378;6.736;2022-08-11T07:54:29;37.00;99.90
59999;DHT22;45859;51.378;6.736;2022-08-11T07:56:56;37.60;99.90
59999;DHT22;45859;51.378;6.736;2022-08-11T07:59:23;37.50;99.90
59999;DHT22;45859;51.378;6.736;2022-08-11T08:02:10;37.60;99.90
59999;DHT22;45859;51.378;6.736;2022-08-11T08:04:56;38.40;99.90
59999;DHT22;45859;51.378;6.736;2022-08-11T08:07:41;38.40;99.90
59999;DHT22;45859;51.378;6.736;2022-08-11T08:10:26;39.30;99.90
59999;DHT22;45859;51.378;6.736;2022-08-11T08:13:11;39.40;99.90
59999;DHT22;45859;51.378;6.736;2022-08-11T08:15:56;38.80;99.90
59999;DHT22;45859;51.378;6.736;2022-08-11T08:18:41;38.70;99.90
59999;DHT22;45859;51.378;6.736;2022-08-11T08:21:07;38.60;99.90
59999;DHT22;45859;51.378;6.736;2022-08-11T08:23:38;38.30;99.90
59999;DHT22;45859;51.378;6.736;2022-08-11T08:26:09;38.40;99.90
59999;DHT22;45859;51.378;6.736;2022-08-11T08:28:59;38.30;99.90
59999;DHT22;45859;51.378;6.736;2022-08-11T08:31:45;38.10;99.90
59999;DHT22;45859;51.378;6.736;2022-08-11T08:34:13;38.30;99.90
59999;DHT22;45859;51.378;6.736;2022-08-11T08:36:50;38.20;99.90
59999;DHT22;45859;51.378;6.736;2022-08-11T08:39:22;36.70;99.90
59999;DHT22;45859;51.378;6.736;2022-08-11T08:41:56;36.80;99.90
59999;DHT22;45859;51.378;6.736;2022-08-11T08:44:24;36.80;99.90
59999;DHT22;45859;51.378;6.736;2022-08-11T08:46:54;37.10;99.90
59999;DHT22;45859;51.378;6.736;2022-08-11T08:49:35;36.80;99.90
59999;DHT22;45859;51.378;6.736;2022-08-11T08:52:04;36.60;99.90
59999;DHT22;45859;51.378;6.736;2022-08-11T08:54:37;37.50;99.90
59999;DHT22;45859;51.378;6.736;2022-08-11T08:57:06;36.10;99.90
59999;DHT22;45859;51.378;6.736;2022-08-11T08:59:38;35.20;99.90
59999;DHT22;45859;51.378;6.736;2022-08-11T09:02:05;35.70;99.90
59999;DHT22;45859;51.378;6.736;2022-08-11T09:04:33;36.00;99.90
59999;DHT22;45859;51.378;6.736;2022-08-11T09:07:07;37.00;99.90
59999;DHT22;45859;51.378;6.736;2022-08-11T09:09:34;36.70;99.90
59999;DHT22;45859;51.378;6.736;2022-08-11T09:12:02;36.20;99.90
59999;DHT22;45859;51.378;6.736;2022-08-11T09:14:36;35.90;99.90
59999;DHT22;45859;51.378;6.736;2022-08-11T09:17:23;36.10;99.90
59999;DHT22;45859;51.378;6.736;2022-08-11T09:19:55;36.80;99.90
59999;DHT22;45859;51.378;6.736;2022-08-11T09:22:30;37.60;99.90
59999;DHT22;45859;51.378;6.736;2022-08-11T09:25:16;38.40;99.90
59999;DHT22;45859;51.378;6.736;2022-08-11T09:28:02;39.00;99.90
59999;DHT22;45859;51.378;6.736;2022-08-11T09:30:30;39.10;99.90
59999;DHT22;45859;51.378;6.736;2022-08-11T09:32:58;38.60;99.90
59999;DHT22;45859;51.378;6.736;2022-08-11T09:35:26;37.70;99.90
59999;DHT22;45859;51.378;6.736;2022-08-11T09:37:55;36.70;99.90
59999;DHT22;45859;51.378;6.736;2022-08-11T09:40:42;36.60;99.90
59999;DHT22;45859;51.378;6.736;2022-08-11T09:43:09;36.30;99.90
59999;DHT22;45859;51.378;6.736;2022-08-11T09:45:57;36.20;99.90
59999;DHT22;45859;51.378;6.736;2022-08-11T09:48:26;35.60;99.90
59999;DHT22;45859;51.378;6.736;2022-08-11T09:51:00;35.10;99.90
59999;DHT22;45859;51.378;6.736;2022-08-11T09:53:30;34.10;99.90
59999;DHT22;45859;51.378;6.736;2022-08-11T09:55:57;33.80;99.90
59999;DHT22;45859;51.378;6.736;2022-08-11T09:58:23;33.70;99.90
59999;DHT22;45859;51.378;6.736;2022-08-11T10:00:50;33.60;99.90
59999;DHT22;45859;51.378;6.736;2022-08-11T10:03:27;33.60;99.90
59999;DHT22;45859;51.378;6.736;2022-08-11T10:05:58;33.20;99.90
59999;DHT22;45859;51.378;6.736;2022-08-11T10:08:44;32.90;99.90
59999;DHT22;45859;51.378;6.736;2022-08-11T10:11:15;33.00;99.90
59999;DHT22;45859;51.378;6.736;2022-08-11T10:13:46;33.50;99.90
59999;DHT22;45859;51.378;6.736;2022-08-11T10:16:36;33.60;99.90
59999;DHT22;45859;51.378;6.736;2022-08-11T10:19:04;33.30;99.90
59999;DHT22;45859;51.378;6.736;2022-08-11T10:27:04;32.70;99.90
59999;DHT22;45859;51.378;6.736;2022-08-11T10:29:50;33.10;99.90
59999;DHT22;45859;51.378;6.736;2022-08-11T10:32:34;32.90;99.90
59999;DHT22;45859;51.378;6.736;2022-08-11T10:35:20;32.60;99.90
59999;DHT22;45859;51.378;6.736;2022-08-11T10:37:51;32.60;99.90
59999;DHT22;45859;51.378;6.736;2022-08-11T10:40:20;32.80;99.90
59999;DHT22;45859;51.378;6.736;2022-08-11T10:42:59;32.70;99.90
59999;DHT22;45859;51.378;6.736;2022-08-11T10:45:36;32.70;99.90
59999;DHT22;45859;51.378;6.736;2022-08-11T10:48:22;32.80;99.90
59999;DHT22;45859;51.378;6.736;2022-08-11T10:50:49;32.90;99.90
59999;DHT22;45859;51.378;6.736;2022-08-11T10:53:45;32.80;99.90
59999;DHT22;45859;51.378;6.736;2022-08-11T10:56:37;32.80;99.90
59999;DHT22;45859;51.378;6.736;2022-08-11T10:59:23;32.70;99.90
59999;DHT22;45859;51.378;6.736;2022-08-11T11:01:52;32.60;99.90
59999;DHT22;45859;51.378;6.736;2022-08-11T11:04:23;32.60;99.90
59999;DHT22;45859;51.378;6.736;2022-08-11T11:06:58;32.20;99.90
59999;DHT22;45859;51.378;6.736;2022-08-11T11:09:34;32.10;99.90
59999;DHT22;45859;51.378;6.736;2022-08-11T11:15:13;31.90;99.90
59999;DHT22;45859;51.378;6.736;2022-08-11T11:20:42;31.30;99.90
59999;DHT22;45859;51.378;6.736;2022-08-11T11:28:54;31.20;99.90
59999;DHT22;45859;51.378;6.736;2022-08-11T11:34:16;31.50;99.90
59999;DHT22;45859;51.378;6.736;2022-08-11T11:39:23;31.90;99.90
59999;DHT22;45859;51.378;6.736;2022-08-11T11:41:53;31.80;99.90
59999;DHT22;45859;51.378;6.736;2022-08-11T11:44:20;31.80;99.90
59999;DHT22;45859;51.378;6.736;2022-08-11T11:46:50;31.80;99.90
59999;DHT22;45859;51.378;6.736;2022-08-11T11:49:22;31.60;99.90
59999;DHT22;45859;51.378;6.736;2022-08-11T11:51:49;31.60;99.90
59999;DHT22;45859;51.378;6.736;2022-08-11T11:54:23;31.50;99.90
59999;DHT22;45859;51.378;6.736;2022-08-11T11:56:54;31.60;99.90
59999;DHT22;45859;51.378;6.736;2022-08-11T11:59:22;31.50;99.90
59999;DHT22;45859;51.378;6.736;2022-08-11T12:02:08;31.30;99.90
59999;DHT22;45859;51.378;6.736;2022-08-11T12:04:36;31.30;99.90
59999;DHT22;45859;51.378;6.736;2022-08-11T12:07:03;31.20;99.90
59999;DHT22;45859;51.378;6.736;2022-08-11T12:09:48;31.10;99.90
59999;DHT22;45859;51.378;6.736;2022-08-11T12:12:14;31.00;99.90
59999;DHT22;45859;51.378;6.736;2022-08-11T12:14:59;31.10;99.90
59999;DHT22;45859;51.378;6.736;2022-08-11T12:17:25;31.10;99.90
59999;DHT22;45859;51.378;6.736;2022-08-11T12:19:51;31.20;99.90
59999;DHT22;45859;51.378;6.736;2022-08-11T12:22:17;31.20;99.90
59999;DHT22;45859;51.378;6.736;2022-08-11T12:25:22;31.20;99.90
59999;DHT22;45859;51.378;6.736;2022-08-11T12:28:06;31.10;99.90
59999;DHT22;45859;51.378;6.736;2022-08-11T12:30:31;31.00;99.90
59999;DHT22;45859;51.378;6.736;2022-08-11T12:32:57;31.00;99.90
59999;DHT22;45859;51.378;6.736;2022-08-11T12:35:23;31.00;99.90
59999;DHT22;45859;51.378;6.736;2022-08-11T12:37:53;30.90;99.90
59999;DHT22;45859;51.378;6.736;2022-08-11T12:40:24;31.00;99.90
59999;DHT22;45859;51.378;6.736;2022-08-11T12:43:15;31.20;99.90
59999;DHT22;45859;51.378;6.736;2022-08-11T12:46:03;31.20;99.90
59999;DHT22;45859;51.378;6.736;2022-08-11T12:48:33;31.10;99.90
59999;DHT22;45859;51.378;6.736;2022-08-11T12:51:34;31.00;99.90
59999;DHT22;45859;51.378;6.736;2022-08-11T12:57:12;31.00;99.90
59999;DHT22;45859;51.378;6.736;2022-08-11T12:59:59;30.90;99.90
59999;DHT22;45859;51.378;6.736;2022-08-11T13:02:46;30.90;99.90
59999;DHT22;45859;51.378;6.736;2022-08-11T13:05:31;30.80;99.90
59999;DHT22;45859;51.378;6.736;2022-08-11T13:08:01;30.90;99.90
59999;DHT22;45859;51.378;6.736;2022-08-11T13:10:30;30.80;99.90
59999;DHT22;45859;51.378;6.736;2022-08-11T13:13:17;30.60;99.90
59999;DHT22;45859;51.378;6.736;2022-08-11T13:15:48;30.50;99.90
59999;DHT22;45859;51.378;6.736;2022-08-11T13:18:21;30.50;99.90
59999;DHT22;45859;51.378;6.736;2022-08-11T13:20:54;30.40;99.90
59999;DHT22;45859;51.378;6.736;2022-08-11T13:23:23;30.40;99.90
59999;DHT22;45859;51.378;6.736;2022-08-11T13:25:52;30.40;99.90
59999;DHT22;45859;51.378;6.736;2022-08-11T13:28:20;30.30;99.90
59999;DHT22;45859;51.378;6.736;2022-08-11T13:30:49;30.40;99.90
59999;DHT22;45859;51.378;6.736;2022-08-11T13:33:40;30.40;99.90
59999;DHT22;45859;51.378;6.736;2022-08-11T13:36:07;30.50;99.90
59999;DHT22;45859;51.378;6.736;2022-08-11T13:38:33;30.40;99.90
59999;DHT22;45859;51.378;6.736;2022-08-11T13:41:00;30.40;99.90
59999;DHT22;45859;51.378;6.736;2022-08-11T13:43:26;30.40;99.90
59999;DHT22;45859;51.378;6.736;2022-08-11T13:45:53;30.40;99.90
59999;DHT22;45859;51.378;6.736;2022-08-11T13:48:40;30.40;99.90
59999;DHT22;45859;51.378;6.736;2022-08-11T13:51:08;30.30;99.90
59999;DHT22;45859;51.378;6.736;2022-08-11T13:53:53;30.30;99.90
59999;DHT22;45859;51.378;6.736;2022-08-11T13:56:21;30.30;99.90
59999;DHT22;45859;51.378;6.736;2022-08-11T13:58:48;30.40;99.90
59999;DHT22;45859;51.378;6.736;2022-08-11T14:01:15;30.40;99.90
59999;DHT22;45859;51.378;6.736;2022-08-11T14:03:42;30.50;99.90
59999;DHT22;45859;51.378;6.736;2022-08-11T14:06:09;30.50;99.90
59999;DHT22;45859;51.378;6.736;2022-08-11T14:08:37;30.50;99.90
59999;DHT22;45859;51.378;6.736;2022-08-11T14:11:06;30.40;99.90
59999;DHT22;45859;51.378;6.736;2022-08-11T14:13:51;30.40;99.90
59999;DHT22;45859;51.378;6.736;2022-08-11T14:16:34;30.40;99.90
59999;DHT22;45859;51.378;6.736;2022-08-11T14:19:04;30.30;99.90
59999;DHT22;45859;51.378;6.736;2022-08-11T14:21:37;30.40;99.90
59999;DHT22;45859;51.378;6.736;2022-08-11T14:24:23;30.40;99.90
59999;DHT22;45859;51.378;6.736;2022-08-11T14:26:50;30.40;99.90
59999;DHT22;45859;51.378;6.736;2022-08-11T14:29:19;30.40;99.90
59999;DHT22;45859;51.378;6.736;2022-08-11T14:31:48;30.40;99.90
59999;DHT22;45859;51.378;6.736;2022-08-11T14:34:17;30.40;99.90
59999;DHT22;45859;51.378;6.736;2022-08-11T14:36:51;30.40;99.90
59999;DHT22;45859;51.378;6.736;2022-08-11T14:39:26;30.40;99.90
59999;DHT22;45859;51.378;6.736;2022-08-11T14:42:00;30.30;99.90
59999;DHT22;45859;51.378;6.736;2022-08-11T14:44:48;30.20;99.90
59999;DHT22;45859;51.378;6.736;2022-08-11T14:47:50;30.30;99.90
59999;DHT22;45859;51.378;6.736;2022-08-11T14:50:22;30.30;99.90
59999;DHT22;45859;51.378;6.736;2022-08-11T14:55:24;30.40;99.90
59999;DHT22;45859;51.378;6.736;2022-08-11T14:58:16;30.40;99.90
59999;DHT22;45859;51.378;6.736;2022-08-11T15:00:43;30.30;99.90
59999;DHT22;45859;51.378;6.736;2022-08-11T15:03:13;30.30;99.90
59999;DHT22;45859;51.378;6.736;2022-08-11T15:05:47;30.20;99.90
59999;DHT22;45859;51.378;6.736;2022-08-11T15:08:14;30.20;99.90
59999;DHT22;45859;51.378;6.736;2022-08-11T15:10:41;30.20;99.90
59999;DHT22;45859;51.378;6.736;2022-08-11T15:13:07;30.30;99.90
59999;DHT22;45859;51.378;6.736;2022-08-11T15:15:35;30.30;99.90
59999;DHT22;45859;51.378;6.736;2022-08-11T15:18:23;30.30;99.90
59999;DHT22;45859;51.378;6.736;2022-08-11T15:20:49;30.30;99.90
59999;DHT22;45859;51.378;6.736;2022-08-11T15:23:33;30.20;99.90
59999;DHT22;45859;51.378;6.736;2022-08-11T15:26:47;30.20;99.90
59999;DHT22;45859;51.378;6.736;2022-08-11T15:29:35;30.30;99.90
59999;DHT22;45859;51.378;6.736;2022-08-11T15:32:21;30.20;99.90
59999;DHT22;45859;51.378;6.736;2022-08-11T15:34:59;30.30;99.90
59999;DHT22;45859;51.378;6.736;2022-08-11T15:37:44;30.30;99.90
59999;DHT22;45859;51.378;6.736;2022-08-11T15:40:27;30.30;99.90
59999;DHT22;45859;51.378;6.736;2022-08-11T15:43:31;30.40;99.90
59999;DHT22;45859;51.378;6.736;2022-08-11T15:48:59;30.40;99.90
59999;DHT22;45859;51.378;6.736;2022-08-11T15:51:35;30.40;99.90
59999;DHT22;45859;51.378;6.736;2022-08-11T15:54:09;30.40;99.90
59999;DHT22;45859;51.378;6.736;2022-08-11T15:56:41;30.30;99.90
59999;DHT22;45859;51.378;6.736;2022-08-11T15:59:10;30.30;99.90
59999;DHT22;45859;51.378;6.736;2022-08-11T16:01:58;30.20;99.90
59999;DHT22;45859;51.378;6.736;2022-08-11T16:04:45;30.30;99.90
59999;DHT22;45859;51.378;6.736;2022-08-11T16:07:16;30.20;99.90
59999;DHT22;45859;51.378;6.736;2022-08-11T16:09:52;30.20;99.90
59999;DHT22;45859;51.378;6.736;2022-08-11T16:12:22;30.30;99.90
59999;DHT22;45859;51.378;6.736;2022-08-11T16:14:54;30.20;99.90
59999;DHT22;45859;51.378;6.736;2022-08-11T16:17:49;30.30;99.90
59999;DHT22;45859;51.378;6.736;2022-08-11T16:20:17;30.20;99.90
59999;DHT22;45859;51.378;6.736;2022-08-11T16:22:45;30.20;99.90
59999;DHT22;45859;51.378;6.736;2022-08-11T16:25:24;30.20;99.90
59999;DHT22;45859;51.378;6.736;2022-08-11T16:27:54;30.20;99.90
59999;DHT22;45859;51.378;6.736;2022-08-11T16:30:24;30.20;99.90
59999;DHT22;45859;51.378;6.736;2022-08-11T16:32:51;30.20;99.90
59999;DHT22;45859;51.378;6.736;2022-08-11T16:35:23;30.30;99.90
59999;DHT22;45859;51.378;6.736;2022-08-11T16:38:09;30.30;99.90
59999;DHT22;45859;51.378;6.736;2022-08-11T16:40:56;30.20;99.90
59999;DHT22;45859;51.378;6.736;2022-08-11T16:43:26;30.20;99.90
59999;DHT22;45859;51.378;6.736;2022-08-11T16:46:13;30.20;99.90
59999;DHT22;45859;51.378;6.736;2022-08-11T16:49:09;30.20;99.90
59999;DHT22;45859;51.378;6.736;2022-08-11T16:51:36;30.10;99.90
59999;DHT22;45859;51.378;6.736;2022-08-11T16:54:03;30.00;99.90
59999;DHT22;45859;51.378;6.736;2022-08-11T16:56:51;30.00;99.90
59999;DHT22;45859;51.378;6.736;2022-08-11T16:59:25;30.00;99.90
59999;DHT22;45859;51.378;6.736;2022-08-11T17:01:57;30.00;99.90
59999;DHT22;45859;51.378;6.736;2022-08-11T17:07:28;30.10;99.90
59999;DHT22;45859;51.378;6.736;2022-08-11T17:10:18;30.10;99.90
59999;DHT22;45859;51.378;6.736;2022-08-11T17:13:07;30.00;99.90
59999;DHT22;45859;51.378;6.736;2022-08-11T17:15:48;30.00;99.90
59999;DHT22;45859;51.378;6.736;2022-08-11T17:18:43;30.00;99.90
59999;DHT22;45859;51.378;6.736;2022-08-11T17:21:33;29.90;99.90
59999;DHT22;45859;51.378;6.736;2022-08-11T17:24:09;29.90;99.90
59999;DHT22;45859;51.378;6.736;2022-08-11T17:26:45;29.90;99.90
59999;DHT22;45859;51.378;6.736;2022-08-11T17:29:38;29.80;99.90
59999;DHT22;45859;51.378;6.736;2022-08-11T17:32:09;29.80;99.90
59999;DHT22;45859;51.378;6.736;2022-08-11T17:34:58;29.80;99.90
59999;DHT22;45859;51.378;6.736;2022-08-11T17:37:43;29.80;99.90
59999;DHT22;45859;51.378;6.736;2022-08-11T17:40:13;29.70;99.90
59999;DHT22;45859;51.378;6.736;2022-08-11T17:42:40;29.70;99.90
59999;DHT22;45859;51.378;6.736;2022-08-11T17:45:27;29.60;99.90
59999;DHT22;45859;51.378;6.736;2022-08-11T17:48:12;29.60;99.90
59999;DHT22;45859;51.378;6.736;2022-08-11T17:51:11;29.60;99.90
59999;DHT22;45859;51.378;6.736;2022-08-11T17:53:59;29.50;99.90
59999;DHT22;45859;51.378;6.736;2022-08-11T17:56:45;29.40;99.90
59999;DHT22;45859;51.378;6.736;2022-08-11T17:59:31;29.40;99.90
59999;DHT22;45859;51.378;6.736;2022-08-11T18:02:21;29.30;99.90
59999;DHT22;45859;51.378;6.736;2022-08-11T18:05:07;29.30;99.90
59999;DHT22;45859;51.378;6.736;2022-08-11T18:07:33;29.20;99.90
59999;DHT22;45859;51.378;6.736;2022-08-11T18:10:19;29.10;99.90
59999;DHT22;45859;51.378;6.736;2022-08-11T18:13:04;29.10;99.90
59999;DHT22;45859;51.378;6.736;2022-08-11T18:15:50;29.10;99.90
59999;DHT22;45859;51.378;6.736;2022-08-11T18:18:34;29.00;99.90
59999;DHT22;45859;51.378;6.736;2022-08-11T18:21:20;29.00;99.90
59999;DHT22;45859;51.378;6.736;2022-08-11T18:24:10;28.90;99.90
59999;DHT22;45859;51.378;6.736;2022-08-11T18:26:57;28.80;99.90
59999;DHT22;45859;51.378;6.736;2022-08-11T18:29:44;28.70;99.90
59999;DHT22;45859;51.378;6.736;2022-08-11T18:32:33;28.70;99.90
59999;DHT22;45859;51.378;6.736;2022-08-11T18:35:19;28.60;99.90
59999;DHT22;45859;51.378;6.736;2022-08-11T18:38:05;28.50;99.90
59999;DHT22;45859;51.378;6.736;2022-08-11T18:40:52;28.40;99.90
59999;DHT22;45859;51.378;6.736;2022-08-11T18:43:39;28.40;99.90
59999;DHT22;45859;51.378;6.736;2022-08-11T18:46:26;28.30;99.90
59999;DHT22;45859;51.378;6.736;2022-08-11T18:49:16;28.20;99.90
59999;DHT22;45859;51.378;6.736;2022-08-11T18:52:02;28.10;99.90
59999;DHT22;45859;51.378;6.736;2022-08-11T18:54:48;28.00;99.90
59999;DHT22;45859;51.378;6.736;2022-08-11T18:57:37;28.00;99.90
59999;DHT22;45859;51.378;6.736;2022-08-11T19:00:22;27.90;99.90
59999;DHT22;45859;51.378;6.736;2022-08-11T19:03:10;27.90;99.90
59999;DHT22;45859;51.378;6.736;2022-08-11T19:05:58;27.70;99.90
59999;DHT22;45859;51.378;6.736;2022-08-11T19:08:48;27.70;99.90
59999;DHT22;45859;51.378;6.736;2022-08-11T19:11:36;27.60;99.90
59999;DHT22;45859;51.378;6.736;2022-08-11T19:14:22;27.50;99.90
59999;DHT22;45859;51.378;6.736;2022-08-11T19:17:08;27.40;99.90
59999;DHT22;45859;51.378;6.736;2022-08-11T19:19:54;27.40;99.90
59999;DHT22;45859;51.378;6.736;2022-08-11T19:22:40;27.30;99.90
59999;DHT22;45859;51.378;6.736;2022-08-11T19:25:26;27.20;99.90
59999;DHT22;45859;51.378;6.736;2022-08-11T19:28:12;27.10;99.90
59999;DHT22;45859;51.378;6.736;2022-08-11T19:30:58;27.00;99.90
59999;DHT22;45859;51.378;6.736;2022-08-11T19:33:43;26.90;99.90
59999;DHT22;45859;51.378;6.736;2022-08-11T19:36:29;26.90;99.90
59999;DHT22;45859;51.378;6.736;2022-08-11T19:39:14;26.80;99.90
59999;DHT22;45859;51.378;6.736;2022-08-11T19:41:59;26.70;99.90
59999;DHT22;45859;51.378;6.736;2022-08-11T19:44:45;26.70;99.90
59999;DHT22;45859;51.378;6.736;2022-08-11T19:47:31;26.60;99.90
59999;DHT22;45859;51.378;6.736;2022-08-11T19:50:17;26.50;99.90
59999;DHT22;45859;51.378;6.736;2022-08-11T19:53:03;26.50;99.90
59999;DHT22;45859;51.378;6.736;2022-08-11T19:55:50;26.40;99.90
59999;DHT22;45859;51.378;6.736;2022-08-11T19:58:35;26.30;99.90
59999;DHT22;45859;51.378;6.736;2022-08-11T20:01:20;26.20;99.90
59999;DHT22;45859;51.378;6.736;2022-08-11T20:04:05;26.10;99.90
59999;DHT22;45859;51.378;6.736;2022-08-11T20:06:51;26.00;99.90
59999;DHT22;45859;51.378;6.736;2022-08-11T20:09:38;26.00;99.90
59999;DHT22;45859;51.378;6.736;2022-08-11T20:12:25;25.90;99.90
59999;DHT22;45859;51.378;6.736;2022-08-11T20:15:10;25.90;99.90
59999;DHT22;45859;51.378;6.736;2022-08-11T20:17:56;25.80;99.90
59999;DHT22;45859;51.378;6.736;2022-08-11T20:20:42;25.80;99.90
59999;DHT22;45859;51.378;6.736;2022-08-11T20:23:27;25.70;99.90
59999;DHT22;45859;51.378;6.736;2022-08-11T20:26:11;25.60;99.90
59999;DHT22;45859;51.378;6.736;2022-08-11T20:28:57;25.60;99.90
59999;DHT22;45859;51.378;6.736;2022-08-11T20:31:43;25.50;99.90
59999;DHT22;45859;51.378;6.736;2022-08-11T20:34:30;25.40;99.90